Time;durP1;ratioP1;P1;durP2;ratioP2;P2;SDS_P1;SDS_P2;PMS_P1;PMS_P2;Temp;Humidity;BMP_temperature;BMP_pressure;BME280_temperature;BME280_humidity;BME280_pressure;Samples;Min_cycle;Max_cycle;Signal;HPM_P1;HPM_P2
2022/04/04 00:00:42;;;;;;;1.77;0.80;;;;;;;;;;5046843;28;20021;-68
2022/04/04 00:03:07;;;;;;;1.83;1.20;;;;;;;;;;5050250;28;20465;-68
2022/04/04 00:05:33;;;;;;;1.90;1.40;;;;;;;;;;5047798;28;20044;-67
2022/04/04 00:07:58;;;;;;;1.50;1.00;;;;;;;;;;5053345;28;20037;-67
2022/04/04 00:10:23;;;;;;;1.93;1.10;;;;;;;;;;5051574;28;20102;-67
2022/04/04 00:12:48;;;;;;;1.87;1.07;;;;;;;;;;5052544;28;20393;-67
2022/04/04 00:15:13;;;;;;;1.50;1.13;;;;;;;;;;5049322;28;20362;-67
2022/04/04 00:17:39;;;;;;;1.73;1.20;;;;;;;;;;5053634;28;20029;-68
2022/04/04 00:20:05;;;;;;;2.60;1.00;;;;;;;;;;5044424;28;20033;-68
2022/04/04 00:22:31;;;;;;;2.00;0.80;;;;;;;;;;5053742;28;20079;-67
2022/04/04 00:24:56;;;;;;;1.90;1.07;;;;;;;;;;5050033;28;20017;-67
2022/04/04 00:27:22;;;;;;;2.37;1.20;;;;;;;;;;5048754;28;20450;-68
2022/04/04 00:29:47;;;;;;;3.10;1.37;;;;;;;;;;5043953;28;20034;-68
2022/04/04 00:32:12;;;;;;;3.37;1.43;;;;;;;;;;5045601;28;20484;-67
2022/04/04 00:34:37;;;;;;;1.40;0.90;;;;;;;;;;5051134;28;20028;-68
2022/04/04 00:37:03;;;;;;;1.07;0.93;;;;;;;;;;5051357;28;20021;-68
2022/04/04 00:39:28;;;;;;;3.10;1.10;;;;;;;;;;5050127;28;20033;-68
2022/04/04 00:41:53;;;;;;;1.80;1.30;;;;;;;;;;5051559;28;20377;-68
2022/04/04 00:44:18;;;;;;;3.30;1.17;;;;;;;;;;5046813;28;20474;-68
2022/04/04 00:46:44;;;;;;;2.07;1.10;;;;;;;;;;5053832;28;20016;-68
2022/04/04 00:49:09;;;;;;;1.20;0.70;;;;;;;;;;5061548;28;20063;-68
2022/04/04 00:51:35;;;;;;;1.37;0.87;;;;;;;;;;5057265;28;20083;-68
2022/04/04 00:54:01;;;;;;;1.40;1.07;;;;;;;;;;5053026;28;20025;-68
2022/04/04 00:56:27;;;;;;;3.43;1.50;;;;;;;;;;5031847;28;20397;-68
2022/04/04 00:58:52;;;;;;;2.70;1.37;;;;;;;;;;5035976;28;20052;-67
2022/04/04 01:01:17;;;;;;;1.97;1.00;;;;;;;;;;5040182;28;20032;-67
2022/04/04 01:03:42;;;;;;;1.90;0.80;;;;;;;;;;5050924;28;20021;-68
2022/04/04 01:06:08;;;;;;;1.90;1.27;;;;;;;;;;5034163;28;20023;-68
2022/04/04 01:08:33;;;;;;;2.03;1.20;;;;;;;;;;5051265;28;20013;-68
2022/04/04 01:10:58;;;;;;;2.57;0.90;;;;;;;;;;5052641;28;20154;-68
2022/04/04 01:13:23;;;;;;;2.13;1.20;;;;;;;;;;5051662;28;20044;-68
2022/04/04 01:15:49;;;;;;;1.43;0.90;;;;;;;;;;5031939;28;20036;-68
2022/04/04 01:18:14;;;;;;;1.57;0.90;;;;;;;;;;5041471;28;20017;-67
2022/04/04 01:20:39;;;;;;;2.73;1.30;;;;;;;;;;5037813;28;20036;-68
2022/04/04 01:23:05;;;;;;;1.93;1.20;;;;;;;;;;5049710;28;20021;-67
2022/04/04 01:25:31;;;;;;;2.57;1.10;;;;;;;;;;5048428;28;20021;-68
2022/04/04 01:27:57;;;;;;;1.53;1.30;;;;;;;;;;5041783;28;20104;-68
2022/04/04 01:30:23;;;;;;;1.83;1.03;;;;;;;;;;5050263;28;20107;-68
2022/04/04 01:32:49;;;;;;;1.57;1.40;;;;;;;;;;5047386;28;20025;-67
2022/04/04 01:35:15;;;;;;;2.20;1.20;;;;;;;;;;5048277;28;20033;-68
2022/04/04 01:37:40;;;;;;;2.43;1.50;;;;;;;;;;5040953;28;20039;-68
2022/04/04 01:40:06;;;;;;;2.07;1.53;;;;;;;;;;5047403;28;20041;-67
2022/04/04 01:42:32;;;;;;;1.50;1.07;;;;;;;;;;5052531;28;20061;-67
2022/04/04 01:44:57;;;;;;;1.10;0.87;;;;;;;;;;5055033;28;20056;-68
2022/04/04 01:47:22;;;;;;;1.20;1.10;;;;;;;;;;5050718;28;20468;-68
2022/04/04 01:49:47;;;;;;;1.73;1.40;;;;;;;;;;5049467;28;20063;-67
2022/04/04 01:52:13;;;;;;;1.57;1.00;;;;;;;;;;5048716;28;20017;-68
2022/04/04 01:54:38;;;;;;;2.70;1.13;;;;;;;;;;5049365;28;20037;-67
2022/04/04 01:57:04;;;;;;;1.50;1.40;;;;;;;;;;5046503;28;20022;-68
2022/04/04 01:59:29;;;;;;;1.73;1.23;;;;;;;;;;5045132;28;20049;-68
2022/04/04 02:01:54;;;;;;;2.47;1.20;;;;;;;;;;5042964;28;20078;-66
2022/04/04 02:04:20;;;;;;;3.40;1.33;;;;;;;;;;5041208;28;20453;-67
2022/04/04 02:06:45;;;;;;;2.57;1.10;;;;;;;;;;5045431;28;20371;-67
2022/04/04 02:09:10;;;;;;;2.33;1.20;;;;;;;;;;5047383;28;20473;-67
2022/04/04 02:11:35;;;;;;;2.53;1.20;;;;;;;;;;5051905;28;20036;-67
2022/04/04 02:14:02;;;;;;;3.20;1.33;;;;;;;;;;5049839;28;20024;-66
2022/04/04 02:16:27;;;;;;;3.43;1.10;;;;;;;;;;5050012;28;20044;-67
2022/04/04 02:18:53;;;;;;;2.13;1.47;;;;;;;;;;5046222;28;20470;-67
2022/04/04 02:21:19;;;;;;;2.47;1.40;;;;;;;;;;5051920;28;20032;-67
2022/04/04 02:23:44;;;;;;;2.20;0.90;;;;;;;;;;5050525;28;20454;-67
2022/04/04 02:26:09;;;;;;;2.33;1.50;;;;;;;;;;5049442;28;20021;-68
2022/04/04 02:28:34;;;;;;;3.23;1.43;;;;;;;;;;5037987;28;20028;-67
2022/04/04 02:31:00;;;;;;;2.13;1.53;;;;;;;;;;5045147;28;20029;-68
2022/04/04 02:33:26;;;;;;;2.77;1.60;;;;;;;;;;5045855;28;20044;-68
2022/04/04 02:35:51;;;;;;;1.93;1.17;;;;;;;;;;5040856;28;20025;-68
2022/04/04 02:38:18;;;;;;;3.80;1.33;;;;;;;;;;5051503;28;20042;-68
2022/04/04 02:40:43;;;;;;;2.70;1.07;;;;;;;;;;5042580;28;20397;-68
2022/04/04 02:43:09;;;;;;;1.90;1.70;;;;;;;;;;5043537;28;20548;-68
2022/04/04 02:45:34;;;;;;;1.93;1.10;;;;;;;;;;5042019;28;20108;-68
2022/04/04 02:47:59;;;;;;;2.57;0.93;;;;;;;;;;5043557;28;20178;-68
2022/04/04 02:50:25;;;;;;;1.50;1.30;;;;;;;;;;5032106;28;20485;-68
2022/04/04 02:52:50;;;;;;;1.23;1.00;;;;;;;;;;5055756;28;20047;-67
2022/04/04 02:57:59;;;;;;;2.67;1.30;;;;;;;;;;5048902;28;20048;-67
2022/04/04 03:00:25;;;;;;;2.90;1.30;;;;;;;;;;5050799;28;20029;-68
2022/04/04 03:02:51;;;;;;;1.70;1.10;;;;;;;;;;5042433;28;20021;-68
2022/04/04 03:05:16;;;;;;;2.40;1.20;;;;;;;;;;5044854;28;20018;-68
2022/04/04 03:07:42;;;;;;;1.63;1.27;;;;;;;;;;5049494;28;20021;-68
2022/04/04 03:10:08;;;;;;;1.97;1.10;;;;;;;;;;5050585;28;20032;-68
2022/04/04 03:12:38;;;;;;;2.47;1.30;;;;;;;;;;5041170;28;20124;-67
2022/04/04 03:15:03;;;;;;;1.43;0.80;;;;;;;;;;5041291;28;20028;-68
2022/04/04 03:17:29;;;;;;;2.40;1.33;;;;;;;;;;5048751;28;20037;-68
2022/04/04 03:19:54;;;;;;;0.87;0.70;;;;;;;;;;5050493;28;20059;-68
2022/04/04 03:22:19;;;;;;;2.43;1.13;;;;;;;;;;5049660;28;20035;-68
2022/04/04 03:24:44;;;;;;;3.17;1.63;;;;;;;;;;5050020;28;20029;-68
2022/04/04 03:27:13;;;;;;;1.10;0.57;;;;;;;;;;5037615;28;20036;-68
2022/04/04 03:29:38;;;;;;;2.10;1.10;;;;;;;;;;5045835;28;20040;-67
2022/04/04 03:32:04;;;;;;;2.83;1.60;;;;;;;;;;5055733;28;20086;-67
2022/04/04 03:34:29;;;;;;;1.53;1.37;;;;;;;;;;5048998;28;20086;-68
2022/04/04 03:36:54;;;;;;;2.43;1.67;;;;;;;;;;5050236;28;20083;-67
2022/04/04 03:39:19;;;;;;;2.23;1.50;;;;;;;;;;5054223;28;20085;-67
2022/04/04 03:41:45;;;;;;;1.50;1.40;;;;;;;;;;5037388;28;20123;-66
2022/04/04 03:44:11;;;;;;;1.73;1.17;;;;;;;;;;5047092;28;20417;-66
2022/04/04 03:46:36;;;;;;;1.77;1.60;;;;;;;;;;5047391;28;20025;-66
2022/04/04 03:49:02;;;;;;;2.20;1.60;;;;;;;;;;5062087;28;20063;-67
2022/04/04 03:51:27;;;;;;;3.40;1.70;;;;;;;;;;5056970;28;20509;-68
2022/04/04 03:53:52;;;;;;;3.03;1.70;;;;;;;;;;5053234;28;20515;-67
2022/04/04 03:56:17;;;;;;;2.90;1.33;;;;;;;;;;5050364;28;20493;-67
2022/04/04 03:58:43;;;;;;;3.57;1.83;;;;;;;;;;5047691;28;20127;-66
2022/04/04 04:01:08;;;;;;;1.93;1.40;;;;;;;;;;5044335;28;20021;-67
2022/04/04 04:03:34;;;;;;;2.50;1.40;;;;;;;;;;5052931;28;20079;-68
2022/04/04 04:06:12;;;;;;;2.30;1.60;;;;;;;;;;5045632;28;20034;-68
2022/04/04 04:08:46;;;;;;;2.53;1.30;;;;;;;;;;5071155;28;20017;-67
2022/04/04 04:11:13;;;;;;;1.60;1.10;;;;;;;;;;5049492;28;20021;-68
2022/04/04 04:13:39;;;;;;;5.00;1.53;;;;;;;;;;5046313;28;20119;-67
2022/04/04 04:16:04;;;;;;;4.03;2.10;;;;;;;;;;5033424;28;20518;-68
2022/04/04 04:18:30;;;;;;;4.60;2.23;;;;;;;;;;5052855;28;20074;-68
2022/04/04 04:20:56;;;;;;;3.97;1.83;;;;;;;;;;5051404;28;20027;-68
2022/04/04 04:23:21;;;;;;;2.60;1.70;;;;;;;;;;5040644;28;20483;-68
2022/04/04 04:25:46;;;;;;;2.33;1.60;;;;;;;;;;5055986;28;20389;-67
2022/04/04 04:28:12;;;;;;;3.27;1.70;;;;;;;;;;5046226;28;20023;-67
2022/04/04 04:30:37;;;;;;;2.47;1.73;;;;;;;;;;5052735;28;20021;-67
2022/04/04 04:33:03;;;;;;;4.43;1.97;;;;;;;;;;5040210;28;20233;-68
2022/04/04 04:35:28;;;;;;;3.83;1.40;;;;;;;;;;5051441;28;20048;-67
2022/04/04 04:37:54;;;;;;;1.83;1.63;;;;;;;;;;5053161;28;20031;-68
2022/04/04 04:40:20;;;;;;;2.83;1.90;;;;;;;;;;5051983;28;20040;-67
2022/04/04 04:42:46;;;;;;;3.60;2.00;;;;;;;;;;5051489;28;20028;-67
2022/04/04 04:45:12;;;;;;;3.33;1.47;;;;;;;;;;5048232;28;20477;-67
2022/04/04 04:47:37;;;;;;;3.07;1.97;;;;;;;;;;5034353;28;20034;-66
2022/04/04 04:50:04;;;;;;;2.50;1.43;;;;;;;;;;5052170;28;20089;-68
2022/04/04 04:52:29;;;;;;;2.33;2.00;;;;;;;;;;5040424;28;20519;-67
2022/04/04 04:54:54;;;;;;;4.67;1.80;;;;;;;;;;5037782;28;20036;-68
2022/04/04 04:57:20;;;;;;;2.10;1.30;;;;;;;;;;5038541;28;20505;-67
2022/04/04 04:59:46;;;;;;;2.93;1.37;;;;;;;;;;5042356;28;20052;-68
2022/04/04 05:02:11;;;;;;;2.17;1.20;;;;;;;;;;5048251;28;20112;-67
2022/04/04 05:04:36;;;;;;;1.93;1.40;;;;;;;;;;5050966;28;20021;-68
2022/04/04 05:07:01;;;;;;;3.23;1.47;;;;;;;;;;5041520;28;20025;-68
2022/04/04 05:09:27;;;;;;;2.87;2.10;;;;;;;;;;5051370;28;20021;-67
2022/04/04 05:11:53;;;;;;;2.83;1.40;;;;;;;;;;5052770;28;20080;-67
2022/04/04 05:14:18;;;;;;;2.50;1.83;;;;;;;;;;5051606;28;20071;-67
2022/04/04 05:16:44;;;;;;;4.37;1.87;;;;;;;;;;5045991;28;20022;-68
2022/04/04 05:19:10;;;;;;;3.07;1.87;;;;;;;;;;5025759;28;20401;-68
2022/04/04 05:21:35;;;;;;;1.83;1.70;;;;;;;;;;5038842;28;20084;-67
2022/04/04 05:24:01;;;;;;;3.07;1.80;;;;;;;;;;5049286;28;20025;-68
2022/04/04 05:26:26;;;;;;;5.47;2.20;;;;;;;;;;5026863;28;20035;-68
2022/04/04 05:28:51;;;;;;;1.87;1.27;;;;;;;;;;5040038;28;20067;-68
2022/04/04 05:31:17;;;;;;;4.03;1.53;;;;;;;;;;5054992;28;20017;-68
2022/04/04 05:33:42;;;;;;;2.33;1.73;;;;;;;;;;5064567;28;20469;-68
2022/04/04 05:36:07;;;;;;;2.53;2.03;;;;;;;;;;5043729;28;20061;-68
2022/04/04 05:38:33;;;;;;;2.23;1.80;;;;;;;;;;5031221;28;20052;-67
2022/04/04 05:40:58;;;;;;;2.63;1.73;;;;;;;;;;5025067;28;20064;-68
2022/04/04 05:43:24;;;;;;;3.33;2.00;;;;;;;;;;5049124;28;20032;-68
2022/04/04 05:45:49;;;;;;;2.00;1.43;;;;;;;;;;5051075;28;20111;-68
2022/04/04 05:48:14;;;;;;;3.10;2.00;;;;;;;;;;5045222;28;20025;-68
2022/04/04 05:50:40;;;;;;;3.10;2.10;;;;;;;;;;5033626;28;20028;-68
2022/04/04 05:53:05;;;;;;;2.70;2.10;;;;;;;;;;5050445;28;20396;-68
2022/04/04 05:55:31;;;;;;;5.17;2.03;;;;;;;;;;5033570;28;20029;-68
2022/04/04 05:57:56;;;;;;;2.77;2.37;;;;;;;;;;5044840;28;20048;-68
2022/04/04 06:00:22;;;;;;;4.47;1.80;;;;;;;;;;5045842;28;20158;-68
2022/04/04 06:02:47;;;;;;;2.80;2.13;;;;;;;;;;5046820;28;20021;-67
2022/04/04 06:05:12;;;;;;;3.17;2.10;;;;;;;;;;5068604;28;20016;-66
2022/04/04 06:07:38;;;;;;;4.13;2.70;;;;;;;;;;5051927;28;20458;-67
2022/04/04 06:10:05;;;;;;;2.37;2.13;;;;;;;;;;5070900;28;20066;-67
2022/04/04 06:12:30;;;;;;;1.97;1.87;;;;;;;;;;5068764;28;20116;-67
2022/04/04 06:14:55;;;;;;;2.80;2.20;;;;;;;;;;5049841;28;20075;-67
2022/04/04 06:17:20;;;;;;;3.10;2.80;;;;;;;;;;5051225;28;20021;-67
2022/04/04 06:19:46;;;;;;;2.40;2.10;;;;;;;;;;5062802;28;20066;-67
2022/04/04 06:22:11;;;;;;;2.73;2.17;;;;;;;;;;5062895;28;20051;-67
2022/04/04 06:24:37;;;;;;;2.60;1.77;;;;;;;;;;5049164;28;20413;-67
2022/04/04 06:27:03;;;;;;;3.23;2.63;;;;;;;;;;5044303;28;20025;-67
2022/04/04 06:29:28;;;;;;;2.57;1.73;;;;;;;;;;5045832;28;20017;-68
2022/04/04 06:31:54;;;;;;;2.60;2.40;;;;;;;;;;5046071;28;20037;-67
2022/04/04 06:34:19;;;;;;;3.37;2.47;;;;;;;;;;5046089;28;20028;-67
2022/04/04 06:36:45;;;;;;;4.33;2.97;;;;;;;;;;5035689;28;20030;-68
2022/04/04 06:39:10;;;;;;;2.80;2.50;;;;;;;;;;5045022;28;20017;-67
2022/04/04 06:41:36;;;;;;;3.40;3.07;;;;;;;;;;5051714;28;20025;-68
2022/04/04 06:44:02;;;;;;;3.10;2.60;;;;;;;;;;5047455;28;20072;-68
2022/04/04 06:46:27;;;;;;;3.20;2.73;;;;;;;;;;5050125;28;20041;-68
2022/04/04 06:48:52;;;;;;;6.73;3.23;;;;;;;;;;5050861;28;20017;-69
2022/04/04 06:51:18;;;;;;;3.83;2.93;;;;;;;;;;5070075;28;20494;-68
2022/04/04 06:53:45;;;;;;;4.20;2.20;;;;;;;;;;5067263;28;20111;-68
2022/04/04 06:56:10;;;;;;;2.57;2.17;;;;;;;;;;5049326;28;20025;-68
2022/04/04 06:58:35;;;;;;;3.80;3.43;;;;;;;;;;5030326;28;20056;-68
2022/04/04 07:01:02;;;;;;;3.40;3.10;;;;;;;;;;5047141;28;20713;-67
2022/04/04 07:03:27;;;;;;;3.57;2.47;;;;;;;;;;5031691;28;20026;-66
2022/04/04 07:05:52;;;;;;;3.67;3.20;;;;;;;;;;5035404;28;20078;-67
2022/04/04 07:08:17;;;;;;;3.90;3.50;;;;;;;;;;5050121;28;20086;-67
2022/04/04 07:10:43;;;;;;;5.17;3.90;;;;;;;;;;5052115;28;20066;-67
2022/04/04 07:13:08;;;;;;;6.27;3.60;;;;;;;;;;5055095;28;20029;-67
2022/04/04 07:15:33;;;;;;;3.13;2.67;;;;;;;;;;5038460;28;20148;-67
2022/04/04 07:17:59;;;;;;;3.63;3.30;;;;;;;;;;5057091;28;20056;-67
2022/04/04 07:20:24;;;;;;;3.97;3.00;;;;;;;;;;5052547;28;20025;-67
2022/04/04 07:22:50;;;;;;;3.90;3.50;;;;;;;;;;5061058;28;20024;-68
2022/04/04 07:25:16;;;;;;;4.40;3.50;;;;;;;;;;5073842;28;20038;-67
2022/04/04 07:27:42;;;;;;;3.57;3.23;;;;;;;;;;5046848;28;20021;-67
2022/04/04 07:30:08;;;;;;;4.60;4.13;;;;;;;;;;5049456;28;20104;-67
2022/04/04 07:32:37;;;;;;;4.37;3.97;;;;;;;;;;5039034;28;20025;-67
2022/04/04 07:35:03;;;;;;;4.77;4.37;;;;;;;;;;5054197;28;20543;-67
2022/04/04 07:37:29;;;;;;;3.90;3.60;;;;;;;;;;5054497;28;20082;-67
2022/04/04 07:39:54;;;;;;;4.30;3.90;;;;;;;;;;5055910;28;20033;-67
2022/04/04 07:42:19;;;;;;;5.67;3.50;;;;;;;;;;5041704;28;20398;-67
2022/04/04 07:44:44;;;;;;;7.07;4.47;;;;;;;;;;5054525;28;20476;-68
2022/04/04 07:47:09;;;;;;;3.70;3.30;;;;;;;;;;5053219;28;20032;-68
2022/04/04 07:49:35;;;;;;;3.57;3.27;;;;;;;;;;5056016;28;20025;-68
2022/04/04 07:52:00;;;;;;;3.43;3.10;;;;;;;;;;5059808;28;20436;-68
2022/04/04 07:54:25;;;;;;;5.47;4.53;;;;;;;;;;5048583;28;20078;-68
2022/04/04 07:56:53;;;;;;;4.90;4.43;;;;;;;;;;5045643;28;20029;-67
2022/04/04 07:59:19;;;;;;;5.17;4.70;;;;;;;;;;5050139;28;20414;-66
2022/04/04 08:01:44;;;;;;;5.50;4.80;;;;;;;;;;5048191;28;20079;-67
2022/04/04 08:04:09;;;;;;;4.50;3.83;;;;;;;;;;5068065;28;20025;-68
2022/04/04 08:06:34;;;;;;;3.27;2.97;;;;;;;;;;5051878;28;20017;-68
2022/04/04 08:09:00;;;;;;;5.33;4.83;;;;;;;;;;5051764;28;20021;-68
2022/04/04 08:11:25;;;;;;;4.93;4.53;;;;;;;;;;5052324;28;20013;-67
2022/04/04 08:13:50;;;;;;;7.50;5.67;;;;;;;;;;5051477;28;20436;-67
2022/04/04 08:16:16;;;;;;;5.40;4.90;;;;;;;;;;5047614;28;20099;-68
2022/04/04 08:18:41;;;;;;;4.00;2.63;;;;;;;;;;5049344;28;20021;-68
2022/04/04 08:21:06;;;;;;;4.57;3.83;;;;;;;;;;5052432;28;20020;-67
2022/04/04 08:23:31;;;;;;;4.10;3.10;;;;;;;;;;5051954;28;20127;-67
2022/04/04 08:25:57;;;;;;;5.30;4.80;;;;;;;;;;5045182;28;20356;-67
2022/04/04 08:28:23;;;;;;;6.47;4.90;;;;;;;;;;5030733;28;20051;-67
2022/04/04 08:30:50;;;;;;;6.67;6.03;;;;;;;;;;5053026;28;20045;-67
2022/04/04 08:33:15;;;;;;;4.90;4.23;;;;;;;;;;5056507;28;20495;-68
2022/04/04 08:35:40;;;;;;;5.90;5.40;;;;;;;;;;5050401;28;20009;-67
2022/04/04 08:38:05;;;;;;;3.87;3.47;;;;;;;;;;5053586;28;20563;-68
2022/04/04 08:40:31;;;;;;;4.17;3.50;;;;;;;;;;5050227;28;20032;-68
2022/04/04 08:42:56;;;;;;;9.53;4.90;;;;;;;;;;5056586;28;20044;-68
2022/04/04 08:45:22;;;;;;;6.73;5.17;;;;;;;;;;5048881;28;20020;-67
2022/04/04 08:47:47;;;;;;;4.60;4.20;;;;;;;;;;5055667;28;20028;-68
2022/04/04 08:50:13;;;;;;;6.13;5.53;;;;;;;;;;5046594;28;20031;-68
2022/04/04 08:52:38;;;;;;;5.27;4.87;;;;;;;;;;5045678;28;20017;-68
2022/04/04 08:55:04;;;;;;;5.93;5.33;;;;;;;;;;5051923;28;20017;-68
2022/04/04 08:57:29;;;;;;;5.83;5.23;;;;;;;;;;5042819;28;20114;-68
2022/04/04 08:59:54;;;;;;;6.70;6.10;;;;;;;;;;5041239;28;20040;-68
2022/04/04 09:02:19;;;;;;;4.70;4.25;;;;;;;;;;5043678;28;20464;-68
2022/04/04 09:04:49;;;;;;;5.07;4.53;;;;;;;;;;5052959;28;20029;-68
2022/04/04 09:07:15;;;;;;;7.53;4.63;;;;;;;;;;5033818;28;20018;-68
2022/04/04 09:09:44;;;;;;;5.88;4.95;;;;;;;;;;5047499;28;20079;-68
2022/04/04 09:12:11;;;;;;;5.35;4.55;;;;;;;;;;5051346;28;20033;-68
2022/04/04 09:14:43;;;;;;;4.03;3.72;;;;;;;;;;5042890;28;20079;-67
2022/04/04 09:17:10;;;;;;;4.47;3.95;;;;;;;;;;5032825;28;20125;-68
2022/04/04 09:19:35;;;;;;;4.88;3.08;;;;;;;;;;5032050;28;20033;-68
2022/04/04 09:22:05;;;;;;;4.35;3.95;;;;;;;;;;5050607;28;20033;-68
2022/04/04 09:24:44;;;;;;;3.85;3.55;;;;;;;;;;5053601;28;20025;-68
2022/04/04 09:27:13;;;;;;;4.22;3.83;;;;;;;;;;5043245;28;20111;-68
2022/04/04 09:29:42;;;;;;;4.50;4.15;;;;;;;;;;5039011;28;20504;-68
2022/04/04 09:32:11;;;;;;;4.97;4.32;;;;;;;;;;5044179;28;20060;-68
2022/04/04 09:34:54;;;;;;;6.30;4.15;;;;;;;;;;5057787;28;20029;-67
2022/04/04 09:37:21;;;;;;;4.28;3.88;;;;;;;;;;5031545;28;20033;-67
2022/04/04 09:39:46;;;;;;;3.50;3.20;;;;;;;;;;5062460;28;20034;-67
2022/04/04 09:42:16;;;;;;;6.03;4.38;;;;;;;;;;5050225;28;20124;-67
2022/04/04 09:44:41;;;;;;;3.97;3.05;;;;;;;;;;5052134;28;20091;-68
2022/04/04 09:47:06;;;;;;;4.65;2.60;;;;;;;;;;5052378;28;20462;-68
2022/04/04 09:49:37;;;;;;;3.80;3.42;;;;;;;;;;5049790;28;20036;-68
2022/04/04 09:52:02;;;;;;;3.08;2.40;;;;;;;;;;5051609;28;20504;-67
2022/04/04 09:54:28;;;;;;;3.95;3.40;;;;;;;;;;5054516;28;20067;-68
2022/04/04 09:56:56;;;;;;;4.70;3.55;;;;;;;;;;5043494;28;20055;-68
2022/04/04 09:59:21;;;;;;;3.05;2.75;;;;;;;;;;5049307;28;20596;-69
2022/04/04 10:01:46;;;;;;;3.92;3.42;;;;;;;;;;5050099;28;20127;-67
2022/04/04 10:04:13;;;;;;;4.90;4.15;;;;;;;;;;5052781;28;20438;-67
2022/04/04 10:06:43;;;;;;;3.35;3.03;;;;;;;;;;5036127;28;20156;-67
2022/04/04 10:09:09;;;;;;;5.43;3.72;;;;;;;;;;5032582;28;20045;-67
2022/04/04 10:11:37;;;;;;;3.75;3.45;;;;;;;;;;5050815;28;20492;-68
2022/04/04 10:14:02;;;;;;;3.88;3.40;;;;;;;;;;5051296;28;20039;-68
2022/04/04 10:16:28;;;;;;;2.78;2.53;;;;;;;;;;5051308;28;20028;-67
2022/04/04 10:18:54;;;;;;;4.10;3.75;;;;;;;;;;5051017;28;20031;-68
2022/04/04 10:21:20;;;;;;;4.45;3.00;;;;;;;;;;5059639;28;20037;-67
2022/04/04 10:23:47;;;;;;;3.67;2.90;;;;;;;;;;5051402;28;20453;-67
2022/04/04 10:26:14;;;;;;;2.70;2.50;;;;;;;;;;5049477;28;20396;-68
2022/04/04 10:28:39;;;;;;;3.25;2.95;;;;;;;;;;5056517;28;20028;-67
2022/04/04 10:31:12;;;;;;;4.22;3.83;;;;;;;;;;5051337;28;20025;-67
2022/04/04 10:33:37;;;;;;;3.63;3.33;;;;;;;;;;5064122;28;20035;-67
2022/04/04 10:36:07;;;;;;;5.20;2.97;;;;;;;;;;5043573;28;20025;-67
2022/04/04 10:38:33;;;;;;;3.60;3.30;;;;;;;;;;5056664;28;20033;-66
2022/04/04 10:41:01;;;;;;;4.50;3.35;;;;;;;;;;5050889;28;20033;-67
2022/04/04 10:43:30;;;;;;;4.40;4.10;;;;;;;;;;5057034;28;20017;-67
2022/04/04 10:46:00;;;;;;;4.85;4.03;;;;;;;;;;5046838;28;20110;-67
2022/04/04 10:48:32;;;;;;;4.72;3.45;;;;;;;;;;5054319;28;20478;-67
2022/04/04 10:51:23;;;;;;;4.70;3.58;;;;;;;;;;5068028;28;20400;-68
2022/04/04 10:54:00;;;;;;;4.18;3.78;;;;;;;;;;5069503;28;20110;-67
2022/04/04 10:56:30;;;;;;;6.78;3.33;;;;;;;;;;5059277;28;20025;-67
2022/04/04 10:59:14;;;;;;;5.75;3.88;;;;;;;;;;5042255;28;20056;-67
2022/04/04 11:01:40;;;;;;;4.20;3.90;;;;;;;;;;5042449;28;20047;-68
2022/04/04 11:04:05;;;;;;;4.43;4.03;;;;;;;;;;5054742;28;20116;-68
2022/04/04 11:09:32;;;;;;;4.90;3.83;;;;;;;;;;5037426;28;20120;-68
2022/04/04 11:12:00;;;;;;;5.00;4.47;;;;;;;;;;5045115;28;20104;-67
2022/04/04 11:14:28;;;;;;;4.25;3.95;;;;;;;;;;5048557;28;20045;-68
2022/04/04 11:17:05;;;;;;;4.90;4.53;;;;;;;;;;5046564;28;20378;-68
2022/04/04 11:19:46;;;;;;;5.22;3.97;;;;;;;;;;5051192;28;20031;-68
2022/04/04 11:22:30;;;;;;;4.10;3.80;;;;;;;;;;5047226;28;20021;-68
2022/04/04 11:25:03;;;;;;;7.85;3.65;;;;;;;;;;5035122;28;20018;-69
2022/04/04 11:27:28;;;;;;;4.65;4.35;;;;;;;;;;5039605;28;20163;-68
2022/04/04 11:29:54;;;;;;;4.22;3.60;;;;;;;;;;5046767;28;20112;-67
2022/04/04 11:32:28;;;;;;;3.92;3.63;;;;;;;;;;5051649;28;20081;-67
2022/04/04 11:34:57;;;;;;;6.22;3.47;;;;;;;;;;5036667;28;20398;-69
2022/04/04 11:37:24;;;;;;;3.65;3.35;;;;;;;;;;5033106;28;20056;-68
2022/04/04 11:39:50;;;;;;;3.55;3.10;;;;;;;;;;5049086;28;20456;-68
2022/04/04 11:42:15;;;;;;;4.47;2.63;;;;;;;;;;5054599;28;20017;-69
2022/04/04 11:44:47;;;;;;;4.03;3.45;;;;;;;;;;5039687;28;20386;-68
2022/04/04 11:47:12;;;;;;;3.88;3.58;;;;;;;;;;5049761;28;20044;-68
2022/04/04 11:49:38;;;;;;;3.03;2.80;;;;;;;;;;5044539;28;20478;-68
2022/04/04 11:52:06;;;;;;;4.78;3.28;;;;;;;;;;5034830;28;20124;-68
2022/04/04 11:54:41;;;;;;;3.80;3.25;;;;;;;;;;5034459;28;20089;-68
2022/04/04 11:57:07;;;;;;;2.92;2.72;;;;;;;;;;5031630;28;20037;-68
2022/04/04 11:59:51;;;;;;;2.55;2.30;;;;;;;;;;5055945;28;20057;-68
2022/04/04 12:02:22;;;;;;;2.92;2.72;;;;;;;;;;5040526;28;20025;-68
2022/04/04 12:04:47;;;;;;;3.65;3.35;;;;;;;;;;5052781;28;20477;-68
2022/04/04 12:07:13;;;;;;;2.95;2.70;;;;;;;;;;5053245;28;20025;-68
2022/04/04 12:09:38;;;;;;;4.00;3.30;;;;;;;;;;5050385;28;20025;-67
2022/04/04 12:12:05;;;;;;;3.55;3.08;;;;;;;;;;5051909;28;20421;-68
2022/04/04 12:14:34;;;;;;;2.95;2.63;;;;;;;;;;5043464;28;20576;-68
2022/04/04 12:16:59;;;;;;;3.33;3.05;;;;;;;;;;5047471;28;20021;-67
2022/04/04 12:19:25;;;;;;;4.18;3.25;;;;;;;;;;5049352;28;20441;-69
2022/04/04 12:21:51;;;;;;;3.08;2.78;;;;;;;;;;5047322;28;20033;-68
2022/04/04 12:27:07;;;;;;;3.90;3.50;;;;;;;;;;5045049;28;20028;-68
2022/04/04 12:29:38;;;;;;;3.47;2.83;;;;;;;;;;5047088;28;20025;-69
2022/04/04 12:32:03;;;;;;;3.53;3.30;;;;;;;;;;5039744;28;20029;-68
2022/04/04 12:34:28;;;;;;;2.95;2.70;;;;;;;;;;5042062;28;20033;-67
2022/04/04 12:37:01;;;;;;;4.25;3.50;;;;;;;;;;5035237;28;20028;-68
2022/04/04 12:39:26;;;;;;;5.35;3.17;;;;;;;;;;5038463;28;20029;-68
2022/04/04 12:41:53;;;;;;;2.95;2.70;;;;;;;;;;5038088;28;20090;-68
2022/04/04 12:44:20;;;;;;;2.95;2.70;;;;;;;;;;5032591;28;20017;-68
2022/04/04 12:46:45;;;;;;;3.83;2.75;;;;;;;;;;5052449;28;20013;-68
2022/04/04 12:49:11;;;;;;;3.63;2.88;;;;;;;;;;5050714;28;20385;-68
2022/04/04 12:51:38;;;;;;;2.25;1.95;;;;;;;;;;5050622;28;20059;-68
2022/04/04 12:54:03;;;;;;;2.67;2.47;;;;;;;;;;5038603;28;20124;-68
2022/04/04 12:56:31;;;;;;;2.85;2.65;;;;;;;;;;5043063;28;20168;-68
2022/04/04 12:59:06;;;;;;;2.50;2.33;;;;;;;;;;5032214;28;20070;-68
2022/04/04 13:01:32;;;;;;;3.05;2.85;;;;;;;;;;5032262;28;20428;-68
2022/04/04 13:03:57;;;;;;;2.55;2.03;;;;;;;;;;5032751;28;20273;-67
2022/04/04 13:06:22;;;;;;;3.03;2.53;;;;;;;;;;5050454;28;20024;-67
2022/04/04 13:09:06;;;;;;;3.25;2.80;;;;;;;;;;5033696;28;20028;-67
2022/04/04 13:11:45;;;;;;;2.22;2.05;;;;;;;;;;5031873;28;20486;-68
2022/04/04 13:14:10;;;;;;;2.80;2.60;;;;;;;;;;5043254;28;20024;-67
2022/04/04 13:16:35;;;;;;;2.85;2.25;;;;;;;;;;5051769;28;20481;-68
2022/04/04 13:19:01;;;;;;;4.53;2.42;;;;;;;;;;5048466;28;20091;-67
2022/04/04 13:21:26;;;;;;;2.60;2.08;;;;;;;;;;5041878;28;20029;-68
2022/04/04 13:23:52;;;;;;;3.03;2.13;;;;;;;;;;5049900;28;20032;-68
2022/04/04 13:26:17;;;;;;;2.35;2.17;;;;;;;;;;5048049;28;20017;-68
2022/04/04 13:28:42;;;;;;;2.92;1.85;;;;;;;;;;5039216;28;20032;-68
2022/04/04 13:31:07;;;;;;;2.55;2.13;;;;;;;;;;5040913;28;20099;-68
2022/04/04 13:33:33;;;;;;;2.20;2.10;;;;;;;;;;5051872;28;20025;-68
2022/04/04 13:35:58;;;;;;;2.60;2.08;;;;;;;;;;5049593;28;20054;-67
2022/04/04 13:38:23;;;;;;;1.77;1.67;;;;;;;;;;5048688;28;20104;-67
2022/04/04 13:40:48;;;;;;;2.42;1.73;;;;;;;;;;5048623;28;20029;-67
2022/04/04 13:43:13;;;;;;;2.10;1.90;;;;;;;;;;5033451;28;20026;-67
2022/04/04 13:45:39;;;;;;;6.18;2.00;;;;;;;;;;5034485;28;20030;-67
2022/04/04 13:48:04;;;;;;;3.58;1.50;;;;;;;;;;5054231;28;20059;-67
2022/04/04 13:50:30;;;;;;;2.58;1.67;;;;;;;;;;5046419;28;20027;-67
2022/04/04 13:52:55;;;;;;;2.42;1.45;;;;;;;;;;5047388;28;20024;-66
2022/04/04 13:55:20;;;;;;;3.03;1.42;;;;;;;;;;5050453;28;20400;-68
2022/04/04 13:57:45;;;;;;;2.25;1.10;;;;;;;;;;5041097;28;20068;-67
2022/04/04 14:00:11;;;;;;;1.45;1.35;;;;;;;;;;5042869;28;20048;-68
2022/04/04 14:02:40;;;;;;;3.65;2.38;;;;;;;;;;5047333;28;20025;-67
2022/04/04 14:05:06;;;;;;;8.15;5.53;;;;;;;;;;5050028;28;20055;-67
2022/04/04 14:07:32;;;;;;;2.80;1.90;;;;;;;;;;5042005;28;20083;-67
2022/04/04 14:09:59;;;;;;;3.70;2.15;;;;;;;;;;5049907;28;20469;-67
2022/04/04 14:12:24;;;;;;;4.00;2.20;;;;;;;;;;5050183;28;20028;-66
2022/04/04 14:14:49;;;;;;;3.45;2.00;;;;;;;;;;5045713;28;20086;-67
2022/04/04 14:17:14;;;;;;;2.17;1.98;;;;;;;;;;5051303;28;20029;-66
2022/04/04 14:19:40;;;;;;;4.85;2.67;;;;;;;;;;5055029;28;20029;-67
2022/04/04 14:22:06;;;;;;;2.75;2.55;;;;;;;;;;5044826;28;20025;-66
2022/04/04 14:24:31;;;;;;;2.47;2.05;;;;;;;;;;5043011;28;20024;-66
2022/04/04 14:26:56;;;;;;;3.00;1.80;;;;;;;;;;5045130;28;20015;-67
2022/04/04 14:29:21;;;;;;;3.50;2.72;;;;;;;;;;5048316;28;20029;-67
2022/04/04 14:31:47;;;;;;;4.53;2.65;;;;;;;;;;5046281;28;20468;-67
2022/04/04 14:34:13;;;;;;;3.03;2.72;;;;;;;;;;5048198;28;20028;-66
2022/04/04 14:36:39;;;;;;;5.43;2.45;;;;;;;;;;5045938;28;20091;-66
2022/04/04 14:39:07;;;;;;;2.67;2.45;;;;;;;;;;5051109;28;20377;-66
2022/04/04 14:41:32;;;;;;;2.00;1.80;;;;;;;;;;5045550;28;20024;-66
2022/04/04 14:43:58;;;;;;;2.13;2.00;;;;;;;;;;5045720;28;20456;-66
2022/04/04 14:46:23;;;;;;;5.65;1.90;;;;;;;;;;5055083;28;20107;-66